sensor_id;sensor_type;location;lat;lon;timestamp;P1;durP1;ratioP1;P2;durP2;ratioP2
19788;SDS011;10054;59.332;18.244;2022-09-30T00:01:53;1.80;;;1.40;;
19788;SDS011;10054;59.332;18.244;2022-09-30T00:04:22;1.93;;;1.20;;
19788;SDS011;10054;59.332;18.244;2022-09-30T00:06:52;1.47;;;1.37;;
19788;SDS011;10054;59.332;18.244;2022-09-30T00:09:21;1.47;;;1.37;;
19788;SDS011;10054;59.332;18.244;2022-09-30T00:11:49;1.60;;;1.50;;
19788;SDS011;10054;59.332;18.244;2022-09-30T00:14:19;2.43;;;1.30;;
19788;SDS011;10054;59.332;18.244;2022-09-30T00:16:49;1.73;;;1.60;;
19788;SDS011;10054;59.332;18.244;2022-09-30T00:19:18;1.53;;;1.43;;
19788;SDS011;10054;59.332;18.244;2022-09-30T00:21:47;2.03;;;1.40;;
19788;SDS011;10054;59.332;18.244;2022-09-30T00:24:15;1.77;;;1.27;;
19788;SDS011;10054;59.332;18.244;2022-09-30T00:26:44;1.90;;;1.40;;
19788;SDS011;10054;59.332;18.244;2022-09-30T00:29:13;1.57;;;1.23;;
19788;SDS011;10054;59.332;18.244;2022-09-30T00:31:41;1.43;;;1.40;;
19788;SDS011;10054;59.332;18.244;2022-09-30T00:34:10;1.43;;;1.33;;
19788;SDS011;10054;59.332;18.244;2022-09-30T00:36:42;1.30;;;1.20;;
19788;SDS011;10054;59.332;18.244;2022-09-30T00:39:20;1.70;;;1.60;;
19788;SDS011;10054;59.332;18.244;2022-09-30T00:41:59;2.77;;;1.47;;
19788;SDS011;10054;59.332;18.244;2022-09-30T00:47:25;1.50;;;1.40;;
19788;SDS011;10054;59.332;18.244;2022-09-30T00:49:56;1.43;;;1.33;;
19788;SDS011;10054;59.332;18.244;2022-09-30T00:52:26;1.20;;;1.20;;
19788;SDS011;10054;59.332;18.244;2022-09-30T00:54:55;1.13;;;1.13;;
19788;SDS011;10054;59.332;18.244;2022-09-30T00:57:27;1.83;;;1.40;;
19788;SDS011;10054;59.332;18.244;2022-09-30T00:59:57;2.23;;;1.33;;
19788;SDS011;10054;59.332;18.244;2022-09-30T01:02:26;1.60;;;1.10;;
19788;SDS011;10054;59.332;18.244;2022-09-30T01:04:56;1.43;;;1.37;;
19788;SDS011;10054;59.332;18.244;2022-09-30T01:07:24;1.50;;;1.40;;
19788;SDS011;10054;59.332;18.244;2022-09-30T01:09:53;1.40;;;1.30;;
19788;SDS011;10054;59.332;18.244;2022-09-30T01:12:24;2.23;;;1.20;;
19788;SDS011;10054;59.332;18.244;2022-09-30T01:14:53;1.20;;;1.17;;
19788;SDS011;10054;59.332;18.244;2022-09-30T01:17:44;1.47;;;1.37;;
19788;SDS011;10054;59.332;18.244;2022-09-30T01:23:30;2.13;;;1.30;;
19788;SDS011;10054;59.332;18.244;2022-09-30T01:31:42;1.03;;;1.03;;
19788;SDS011;10054;59.332;18.244;2022-09-30T01:34:16;1.30;;;1.13;;
19788;SDS011;10054;59.332;18.244;2022-09-30T01:37:00;1.00;;;1.00;;
19788;SDS011;10054;59.332;18.244;2022-09-30T01:42:22;0.87;;;0.87;;
19788;SDS011;10054;59.332;18.244;2022-09-30T01:45:07;3.03;;;1.00;;
19788;SDS011;10054;59.332;18.244;2022-09-30T01:47:58;1.43;;;1.10;;
19788;SDS011;10054;59.332;18.244;2022-09-30T01:50:35;1.10;;;1.10;;
19788;SDS011;10054;59.332;18.244;2022-09-30T01:53:05;0.80;;;0.80;;
19788;SDS011;10054;59.332;18.244;2022-09-30T01:55:39;1.07;;;0.97;;
19788;SDS011;10054;59.332;18.244;2022-09-30T01:58:21;1.40;;;1.00;;
19788;SDS011;10054;59.332;18.244;2022-09-30T02:01:05;1.53;;;1.20;;
19788;SDS011;10054;59.332;18.244;2022-09-30T02:03:37;1.73;;;0.90;;
19788;SDS011;10054;59.332;18.244;2022-09-30T02:06:12;3.27;;;1.20;;
19788;SDS011;10054;59.332;18.244;2022-09-30T02:08:56;1.57;;;1.20;;
19788;SDS011;10054;59.332;18.244;2022-09-30T02:11:27;1.90;;;1.00;;
19788;SDS011;10054;59.332;18.244;2022-09-30T02:16:51;0.90;;;0.90;;
19788;SDS011;10054;59.332;18.244;2022-09-30T02:19:39;1.63;;;1.30;;
19788;SDS011;10054;59.332;18.244;2022-09-30T02:22:11;0.87;;;0.87;;
19788;SDS011;10054;59.332;18.244;2022-09-30T02:24:41;1.00;;;1.00;;
19788;SDS011;10054;59.332;18.244;2022-09-30T02:27:14;1.10;;;1.10;;
19788;SDS011;10054;59.332;18.244;2022-09-30T02:29:45;1.17;;;1.10;;
19788;SDS011;10054;59.332;18.244;2022-09-30T02:32:17;2.23;;;1.20;;
19788;SDS011;10054;59.332;18.244;2022-09-30T02:34:55;1.73;;;1.10;;
19788;SDS011;10054;59.332;18.244;2022-09-30T02:37:30;1.30;;;1.20;;
19788;SDS011;10054;59.332;18.244;2022-09-30T02:40:12;2.50;;;1.27;;
19788;SDS011;10054;59.332;18.244;2022-09-30T02:42:46;1.10;;;1.10;;
19788;SDS011;10054;59.332;18.244;2022-09-30T02:45:16;2.17;;;1.30;;
19788;SDS011;10054;59.332;18.244;2022-09-30T02:53:25;1.30;;;1.10;;
19788;SDS011;10054;59.332;18.244;2022-09-30T02:56:01;1.30;;;1.20;;
19788;SDS011;10054;59.332;18.244;2022-09-30T02:58:45;1.43;;;1.10;;
19788;SDS011;10054;59.332;18.244;2022-09-30T03:01:16;1.67;;;1.40;;
19788;SDS011;10054;59.332;18.244;2022-09-30T03:04:04;2.93;;;1.30;;
19788;SDS011;10054;59.332;18.244;2022-09-30T03:06:22;1.23;;;1.07;;
19788;SDS011;10054;59.332;18.244;2022-09-30T03:08:51;1.60;;;1.40;;
19788;SDS011;10054;59.332;18.244;2022-09-30T03:11:26;1.30;;;1.20;;
19788;SDS011;10054;59.332;18.244;2022-09-30T03:19:22;1.40;;;1.30;;
19788;SDS011;10054;59.332;18.244;2022-09-30T03:21:54;1.63;;;1.17;;
19788;SDS011;10054;59.332;18.244;2022-09-30T03:30:14;1.30;;;1.20;;
19788;SDS011;10054;59.332;18.244;2022-09-30T03:32:51;1.67;;;1.30;;
19788;SDS011;10054;59.332;18.244;2022-09-30T03:38:13;2.20;;;1.10;;
19788;SDS011;10054;59.332;18.244;2022-09-30T03:40:52;4.43;;;1.50;;
19788;SDS011;10054;59.332;18.244;2022-09-30T03:43:33;1.40;;;1.30;;
19788;SDS011;10054;59.332;18.244;2022-09-30T03:46:08;1.47;;;1.37;;
19788;SDS011;10054;59.332;18.244;2022-09-30T03:48:38;2.63;;;1.30;;
19788;SDS011;10054;59.332;18.244;2022-09-30T03:51:09;2.30;;;1.27;;
19788;SDS011;10054;59.332;18.244;2022-09-30T03:53:39;1.30;;;1.20;;
19788;SDS011;10054;59.332;18.244;2022-09-30T03:56:09;1.37;;;1.27;;
19788;SDS011;10054;59.332;18.244;2022-09-30T03:58:42;1.37;;;1.27;;
19788;SDS011;10054;59.332;18.244;2022-09-30T04:01:20;4.13;;;1.40;;
19788;SDS011;10054;59.332;18.244;2022-09-30T04:03:47;2.10;;;1.30;;
19788;SDS011;10054;59.332;18.244;2022-09-30T04:06:19;3.60;;;1.30;;
19788;SDS011;10054;59.332;18.244;2022-09-30T04:08:49;2.23;;;1.50;;
19788;SDS011;10054;59.332;18.244;2022-09-30T04:11:19;1.90;;;1.40;;
19788;SDS011;10054;59.332;18.244;2022-09-30T04:13:48;1.40;;;1.30;;
19788;SDS011;10054;59.332;18.244;2022-09-30T04:16:17;1.30;;;1.30;;
19788;SDS011;10054;59.332;18.244;2022-09-30T04:18:45;2.40;;;1.53;;
19788;SDS011;10054;59.332;18.244;2022-09-30T04:21:14;2.70;;;1.47;;
19788;SDS011;10054;59.332;18.244;2022-09-30T04:23:43;1.20;;;1.17;;
19788;SDS011;10054;59.332;18.244;2022-09-30T04:26:12;1.20;;;1.10;;
19788;SDS011;10054;59.332;18.244;2022-09-30T04:28:42;2.73;;;1.50;;
19788;SDS011;10054;59.332;18.244;2022-09-30T04:31:11;1.30;;;1.20;;
19788;SDS011;10054;59.332;18.244;2022-09-30T04:33:42;3.67;;;1.30;;
19788;SDS011;10054;59.332;18.244;2022-09-30T04:36:11;1.70;;;1.60;;
19788;SDS011;10054;59.332;18.244;2022-09-30T04:38:40;1.33;;;1.23;;
19788;SDS011;10054;59.332;18.244;2022-09-30T04:41:11;1.67;;;1.33;;
19788;SDS011;10054;59.332;18.244;2022-09-30T04:43:42;1.53;;;1.43;;
19788;SDS011;10054;59.332;18.244;2022-09-30T04:46:12;1.53;;;1.20;;
19788;SDS011;10054;59.332;18.244;2022-09-30T04:48:42;3.77;;;1.53;;
19788;SDS011;10054;59.332;18.244;2022-09-30T04:51:18;3.10;;;1.40;;
19788;SDS011;10054;59.332;18.244;2022-09-30T04:53:48;1.87;;;1.50;;
19788;SDS011;10054;59.332;18.244;2022-09-30T04:56:17;3.13;;;1.30;;
19788;SDS011;10054;59.332;18.244;2022-09-30T04:58:45;1.83;;;1.53;;
19788;SDS011;10054;59.332;18.244;2022-09-30T05:01:14;2.70;;;1.43;;
19788;SDS011;10054;59.332;18.244;2022-09-30T05:03:44;1.90;;;1.40;;
19788;SDS011;10054;59.332;18.244;2022-09-30T05:06:14;1.63;;;1.53;;
19788;SDS011;10054;59.332;18.244;2022-09-30T05:08:43;3.63;;;1.63;;
19788;SDS011;10054;59.332;18.244;2022-09-30T05:11:13;2.07;;;1.60;;
19788;SDS011;10054;59.332;18.244;2022-09-30T05:13:43;2.40;;;1.43;;
19788;SDS011;10054;59.332;18.244;2022-09-30T05:16:13;3.23;;;1.50;;
19788;SDS011;10054;59.332;18.244;2022-09-30T05:18:42;1.77;;;1.30;;
19788;SDS011;10054;59.332;18.244;2022-09-30T05:21:12;2.07;;;1.60;;
19788;SDS011;10054;59.332;18.244;2022-09-30T05:23:43;2.93;;;1.70;;
19788;SDS011;10054;59.332;18.244;2022-09-30T05:26:11;1.60;;;1.50;;
19788;SDS011;10054;59.332;18.244;2022-09-30T05:28:40;1.87;;;1.70;;
19788;SDS011;10054;59.332;18.244;2022-09-30T05:31:09;1.73;;;1.60;;
19788;SDS011;10054;59.332;18.244;2022-09-30T05:33:39;4.30;;;1.67;;
19788;SDS011;10054;59.332;18.244;2022-09-30T05:36:08;3.27;;;2.03;;
19788;SDS011;10054;59.332;18.244;2022-09-30T05:38:39;2.43;;;1.53;;
19788;SDS011;10054;59.332;18.244;2022-09-30T05:41:09;1.50;;;1.40;;
19788;SDS011;10054;59.332;18.244;2022-09-30T05:43:42;2.07;;;1.70;;
19788;SDS011;10054;59.332;18.244;2022-09-30T05:46:10;2.13;;;1.70;;
19788;SDS011;10054;59.332;18.244;2022-09-30T05:48:39;3.83;;;1.50;;
19788;SDS011;10054;59.332;18.244;2022-09-30T05:51:08;4.97;;;1.50;;
19788;SDS011;10054;59.332;18.244;2022-09-30T05:53:38;1.63;;;1.53;;
19788;SDS011;10054;59.332;18.244;2022-09-30T05:56:09;3.40;;;1.60;;
19788;SDS011;10054;59.332;18.244;2022-09-30T05:58:38;1.57;;;1.47;;
19788;SDS011;10054;59.332;18.244;2022-09-30T06:01:08;2.63;;;1.50;;
19788;SDS011;10054;59.332;18.244;2022-09-30T06:03:39;1.90;;;1.80;;
19788;SDS011;10054;59.332;18.244;2022-09-30T06:06:09;1.93;;;1.77;;
19788;SDS011;10054;59.332;18.244;2022-09-30T06:08:38;3.53;;;3.23;;
19788;SDS011;10054;59.332;18.244;2022-09-30T06:11:16;2.90;;;2.00;;
19788;SDS011;10054;59.332;18.244;2022-09-30T06:13:46;1.90;;;1.80;;
19788;SDS011;10054;59.332;18.244;2022-09-30T06:16:15;2.43;;;1.90;;
19788;SDS011;10054;59.332;18.244;2022-09-30T06:18:45;2.23;;;1.77;;
19788;SDS011;10054;59.332;18.244;2022-09-30T06:21:14;3.50;;;3.20;;
19788;SDS011;10054;59.332;18.244;2022-09-30T06:23:44;4.70;;;3.70;;
19788;SDS011;10054;59.332;18.244;2022-09-30T06:26:12;5.27;;;4.17;;
19788;SDS011;10054;59.332;18.244;2022-09-30T06:28:41;2.90;;;2.70;;
19788;SDS011;10054;59.332;18.244;2022-09-30T06:31:10;4.37;;;2.97;;
19788;SDS011;10054;59.332;18.244;2022-09-30T06:33:40;1.90;;;1.80;;
19788;SDS011;10054;59.332;18.244;2022-09-30T06:36:08;3.10;;;1.87;;
19788;SDS011;10054;59.332;18.244;2022-09-30T06:38:37;2.80;;;2.60;;
19788;SDS011;10054;59.332;18.244;2022-09-30T06:41:06;1.80;;;1.70;;
19788;SDS011;10054;59.332;18.244;2022-09-30T06:43:38;1.80;;;1.70;;
19788;SDS011;10054;59.332;18.244;2022-09-30T06:46:07;2.73;;;1.77;;
19788;SDS011;10054;59.332;18.244;2022-09-30T06:48:38;2.13;;;1.70;;
19788;SDS011;10054;59.332;18.244;2022-09-30T06:51:07;2.23;;;1.87;;
19788;SDS011;10054;59.332;18.244;2022-09-30T06:53:36;2.33;;;1.67;;
19788;SDS011;10054;59.332;18.244;2022-09-30T06:56:05;4.10;;;2.10;;
19788;SDS011;10054;59.332;18.244;2022-09-30T06:58:34;1.90;;;1.80;;
19788;SDS011;10054;59.332;18.244;2022-09-30T07:01:04;2.53;;;1.80;;
19788;SDS011;10054;59.332;18.244;2022-09-30T07:03:33;2.10;;;1.90;;
19788;SDS011;10054;59.332;18.244;2022-09-30T07:06:03;2.00;;;1.80;;
19788;SDS011;10054;59.332;18.244;2022-09-30T07:08:33;2.10;;;1.80;;
19788;SDS011;10054;59.332;18.244;2022-09-30T07:11:09;2.27;;;1.70;;
19788;SDS011;10054;59.332;18.244;2022-09-30T07:13:41;2.63;;;1.60;;
19788;SDS011;10054;59.332;18.244;2022-09-30T07:16:11;1.80;;;1.70;;
19788;SDS011;10054;59.332;18.244;2022-09-30T07:18:41;1.87;;;1.70;;
19788;SDS011;10054;59.332;18.244;2022-09-30T07:21:11;2.10;;;1.90;;
19788;SDS011;10054;59.332;18.244;2022-09-30T07:23:42;1.80;;;1.70;;
19788;SDS011;10054;59.332;18.244;2022-09-30T07:26:14;2.10;;;1.90;;
19788;SDS011;10054;59.332;18.244;2022-09-30T07:28:45;2.87;;;1.77;;
19788;SDS011;10054;59.332;18.244;2022-09-30T07:31:21;1.80;;;1.70;;
19788;SDS011;10054;59.332;18.244;2022-09-30T07:33:52;1.80;;;1.70;;
19788;SDS011;10054;59.332;18.244;2022-09-30T07:36:23;2.37;;;2.13;;
19788;SDS011;10054;59.332;18.244;2022-09-30T07:38:56;1.97;;;1.87;;
19788;SDS011;10054;59.332;18.244;2022-09-30T07:41:26;2.00;;;1.90;;
19788;SDS011;10054;59.332;18.244;2022-09-30T07:43:55;1.90;;;1.80;;
19788;SDS011;10054;59.332;18.244;2022-09-30T07:46:26;1.90;;;1.80;;
19788;SDS011;10054;59.332;18.244;2022-09-30T07:48:57;1.93;;;1.77;;
19788;SDS011;10054;59.332;18.244;2022-09-30T07:51:29;1.83;;;1.73;;
19788;SDS011;10054;59.332;18.244;2022-09-30T07:54:00;1.80;;;1.70;;
19788;SDS011;10054;59.332;18.244;2022-09-30T07:56:31;2.03;;;1.83;;
19788;SDS011;10054;59.332;18.244;2022-09-30T07:59:02;2.43;;;1.80;;
19788;SDS011;10054;59.332;18.244;2022-09-30T08:01:31;2.10;;;1.80;;
19788;SDS011;10054;59.332;18.244;2022-09-30T08:04:02;4.20;;;1.70;;
19788;SDS011;10054;59.332;18.244;2022-09-30T08:06:35;2.07;;;1.90;;
19788;SDS011;10054;59.332;18.244;2022-09-30T08:09:13;2.13;;;1.90;;
19788;SDS011;10054;59.332;18.244;2022-09-30T08:11:43;1.80;;;1.70;;
19788;SDS011;10054;59.332;18.244;2022-09-30T08:14:13;1.90;;;1.80;;
19788;SDS011;10054;59.332;18.244;2022-09-30T08:16:44;2.63;;;1.90;;
19788;SDS011;10054;59.332;18.244;2022-09-30T08:19:13;3.90;;;1.77;;
19788;SDS011;10054;59.332;18.244;2022-09-30T08:21:44;2.60;;;2.00;;
19788;SDS011;10054;59.332;18.244;2022-09-30T08:24:13;2.00;;;1.90;;
19788;SDS011;10054;59.332;18.244;2022-09-30T08:26:42;1.90;;;1.80;;
19788;SDS011;10054;59.332;18.244;2022-09-30T08:29:10;3.67;;;2.00;;
19788;SDS011;10054;59.332;18.244;2022-09-30T08:31:40;3.93;;;2.20;;
19788;SDS011;10054;59.332;18.244;2022-09-30T08:34:09;2.57;;;1.90;;
19788;SDS011;10054;59.332;18.244;2022-09-30T08:36:37;2.47;;;1.80;;
19788;SDS011;10054;59.332;18.244;2022-09-30T08:39:06;2.10;;;2.00;;
19788;SDS011;10054;59.332;18.244;2022-09-30T08:41:50;3.53;;;1.93;;
19788;SDS011;10054;59.332;18.244;2022-09-30T08:44:38;2.60;;;1.93;;
19788;SDS011;10054;59.332;18.244;2022-09-30T08:50:08;2.87;;;1.90;;
19788;SDS011;10054;59.332;18.244;2022-09-30T08:52:50;2.77;;;2.00;;
19788;SDS011;10054;59.332;18.244;2022-09-30T08:55:22;2.67;;;2.20;;
19788;SDS011;10054;59.332;18.244;2022-09-30T08:57:52;3.90;;;2.23;;
19788;SDS011;10054;59.332;18.244;2022-09-30T09:00:23;2.70;;;1.90;;
19788;SDS011;10054;59.332;18.244;2022-09-30T09:02:55;1.97;;;1.87;;
19788;SDS011;10054;59.332;18.244;2022-09-30T09:08:29;2.80;;;1.70;;
19788;SDS011;10054;59.332;18.244;2022-09-30T09:14:23;2.50;;;2.00;;
19788;SDS011;10054;59.332;18.244;2022-09-30T09:20:12;3.40;;;2.27;;
19788;SDS011;10054;59.332;18.244;2022-09-30T09:22:48;5.70;;;2.00;;
19788;SDS011;10054;59.332;18.244;2022-09-30T09:25:14;2.33;;;2.13;;
19788;SDS011;10054;59.332;18.244;2022-09-30T09:30:23;2.00;;;1.90;;
19788;SDS011;10054;59.332;18.244;2022-09-30T09:35:43;4.27;;;2.30;;
19788;SDS011;10054;59.332;18.244;2022-09-30T09:46:25;3.83;;;1.90;;
19788;SDS011;10054;59.332;18.244;2022-09-30T09:52:13;2.17;;;1.97;;
19788;SDS011;10054;59.332;18.244;2022-09-30T09:54:41;2.07;;;1.97;;
19788;SDS011;10054;59.332;18.244;2022-09-30T09:57:12;1.97;;;1.80;;
19788;SDS011;10054;59.332;18.244;2022-09-30T10:03:03;2.40;;;1.70;;
19788;SDS011;10054;59.332;18.244;2022-09-30T10:05:30;3.47;;;1.80;;
19788;SDS011;10054;59.332;18.244;2022-09-30T10:08:24;3.17;;;2.63;;
19788;SDS011;10054;59.332;18.244;2022-09-30T10:10:54;2.60;;;1.80;;
19788;SDS011;10054;59.332;18.244;2022-09-30T10:13:47;2.17;;;1.80;;
19788;SDS011;10054;59.332;18.244;2022-09-30T10:16:21;1.90;;;1.80;;
19788;SDS011;10054;59.332;18.244;2022-09-30T10:18:40;2.43;;;1.77;;
19788;SDS011;10054;59.332;18.244;2022-09-30T10:21:19;1.73;;;1.63;;
19788;SDS011;10054;59.332;18.244;2022-09-30T10:23:50;4.13;;;1.70;;
19788;SDS011;10054;59.332;18.244;2022-09-30T10:26:19;1.67;;;1.53;;
19788;SDS011;10054;59.332;18.244;2022-09-30T10:29:01;1.67;;;1.57;;
19788;SDS011;10054;59.332;18.244;2022-09-30T10:31:23;1.80;;;1.70;;
19788;SDS011;10054;59.332;18.244;2022-09-30T10:36:38;1.63;;;1.53;;
19788;SDS011;10054;59.332;18.244;2022-09-30T10:44:42;2.80;;;1.80;;
19788;SDS011;10054;59.332;18.244;2022-09-30T10:47:13;2.93;;;1.70;;
19788;SDS011;10054;59.332;18.244;2022-09-30T10:52:38;2.00;;;1.80;;
19788;SDS011;10054;59.332;18.244;2022-09-30T10:55:30;1.83;;;1.73;;
19788;SDS011;10054;59.332;18.244;2022-09-30T10:57:48;2.03;;;1.63;;
19788;SDS011;10054;59.332;18.244;2022-09-30T11:00:20;1.90;;;1.70;;
19788;SDS011;10054;59.332;18.244;2022-09-30T11:02:54;1.63;;;1.53;;
19788;SDS011;10054;59.332;18.244;2022-09-30T11:05:30;2.67;;;1.70;;
19788;SDS011;10054;59.332;18.244;2022-09-30T11:08:02;2.87;;;1.73;;
19788;SDS011;10054;59.332;18.244;2022-09-30T11:13:36;1.67;;;1.50;;
19788;SDS011;10054;59.332;18.244;2022-09-30T11:16:29;1.90;;;1.80;;
19788;SDS011;10054;59.332;18.244;2022-09-30T11:21:55;1.80;;;1.70;;
19788;SDS011;10054;59.332;18.244;2022-09-30T11:32:37;1.70;;;1.60;;
19788;SDS011;10054;59.332;18.244;2022-09-30T11:38:56;3.90;;;1.83;;
19788;SDS011;10054;59.332;18.244;2022-09-30T11:40:48;1.90;;;1.60;;
19788;SDS011;10054;59.332;18.244;2022-09-30T11:49:12;1.93;;;1.40;;
19788;SDS011;10054;59.332;18.244;2022-09-30T11:51:48;1.30;;;1.30;;
19788;SDS011;10054;59.332;18.244;2022-09-30T11:54:32;1.33;;;1.23;;
19788;SDS011;10054;59.332;18.244;2022-09-30T11:57:19;1.60;;;1.40;;
19788;SDS011;10054;59.332;18.244;2022-09-30T12:00:04;1.20;;;1.20;;
19788;SDS011;10054;59.332;18.244;2022-09-30T12:02:38;1.20;;;1.20;;
19788;SDS011;10054;59.332;18.244;2022-09-30T12:05:11;2.03;;;1.20;;
19788;SDS011;10054;59.332;18.244;2022-09-30T12:07:57;1.50;;;1.40;;
19788;SDS011;10054;59.332;18.244;2022-09-30T12:10:36;1.53;;;1.43;;
19788;SDS011;10054;59.332;18.244;2022-09-30T12:13:03;1.43;;;1.33;;
19788;SDS011;10054;59.332;18.244;2022-09-30T12:15:38;2.33;;;1.57;;
19788;SDS011;10054;59.332;18.244;2022-09-30T12:18:10;1.30;;;1.30;;
19788;SDS011;10054;59.332;18.244;2022-09-30T12:20:48;2.23;;;1.30;;
19788;SDS011;10054;59.332;18.244;2022-09-30T12:28:34;1.50;;;1.40;;
19788;SDS011;10054;59.332;18.244;2022-09-30T12:31:32;1.53;;;1.40;;
19788;SDS011;10054;59.332;18.244;2022-09-30T12:40:07;1.40;;;1.30;;
19788;SDS011;10054;59.332;18.244;2022-09-30T12:43:01;1.37;;;1.20;;
19788;SDS011;10054;59.332;18.244;2022-09-30T12:45:58;2.37;;;1.40;;
19788;SDS011;10054;59.332;18.244;2022-09-30T12:48:44;1.47;;;1.37;;
19788;SDS011;10054;59.332;18.244;2022-09-30T12:51:35;1.30;;;1.27;;
19788;SDS011;10054;59.332;18.244;2022-09-30T12:54:05;2.20;;;1.40;;
19788;SDS011;10054;59.332;18.244;2022-09-30T12:56:45;2.23;;;1.30;;
19788;SDS011;10054;59.332;18.244;2022-09-30T12:59:16;1.50;;;1.23;;
19788;SDS011;10054;59.332;18.244;2022-09-30T13:01:47;1.23;;;1.20;;
19788;SDS011;10054;59.332;18.244;2022-09-30T13:04:17;1.67;;;1.20;;
19788;SDS011;10054;59.332;18.244;2022-09-30T13:07:06;1.30;;;1.20;;
19788;SDS011;10054;59.332;18.244;2022-09-30T13:09:37;1.20;;;1.20;;
19788;SDS011;10054;59.332;18.244;2022-09-30T13:12:38;2.83;;;1.40;;
19788;SDS011;10054;59.332;18.244;2022-09-30T13:15:58;1.73;;;1.40;;
19788;SDS011;10054;59.332;18.244;2022-09-30T13:17:49;1.93;;;1.40;;
19788;SDS011;10054;59.332;18.244;2022-09-30T13:23:42;1.27;;;1.27;;
19788;SDS011;10054;59.332;18.244;2022-09-30T13:34:22;1.30;;;1.30;;
19788;SDS011;10054;59.332;18.244;2022-09-30T13:45:03;3.83;;;1.70;;
19788;SDS011;10054;59.332;18.244;2022-09-30T13:52:41;1.43;;;1.30;;
19788;SDS011;10054;59.332;18.244;2022-09-30T13:55:59;1.43;;;1.33;;
19788;SDS011;10054;59.332;18.244;2022-09-30T14:06:32;1.90;;;1.60;;
19788;SDS011;10054;59.332;18.244;2022-09-30T14:09:15;1.63;;;1.30;;
19788;SDS011;10054;59.332;18.244;2022-09-30T14:12:08;1.50;;;1.40;;
19788;SDS011;10054;59.332;18.244;2022-09-30T14:20:36;2.27;;;1.20;;
19788;SDS011;10054;59.332;18.244;2022-09-30T14:23:19;1.17;;;1.17;;
19788;SDS011;10054;59.332;18.244;2022-09-30T14:28:44;2.40;;;1.03;;
19788;SDS011;10054;59.332;18.244;2022-09-30T14:31:24;1.60;;;1.30;;
19788;SDS011;10054;59.332;18.244;2022-09-30T14:33:53;1.50;;;1.23;;
19788;SDS011;10054;59.332;18.244;2022-09-30T14:36:23;1.43;;;1.13;;
19788;SDS011;10054;59.332;18.244;2022-09-30T14:38:53;1.33;;;1.30;;
19788;SDS011;10054;59.332;18.244;2022-09-30T14:41:27;1.50;;;1.30;;
19788;SDS011;10054;59.332;18.244;2022-09-30T14:43:57;2.57;;;1.50;;
19788;SDS011;10054;59.332;18.244;2022-09-30T14:46:33;1.33;;;1.23;;
19788;SDS011;10054;59.332;18.244;2022-09-30T14:49:04;1.50;;;1.40;;
19788;SDS011;10054;59.332;18.244;2022-09-30T14:51:43;3.27;;;1.47;;
19788;SDS011;10054;59.332;18.244;2022-09-30T14:54:21;1.50;;;1.40;;
19788;SDS011;10054;59.332;18.244;2022-09-30T14:56:54;1.33;;;1.23;;
19788;SDS011;10054;59.332;18.244;2022-09-30T14:59:25;1.17;;;1.17;;
19788;SDS011;10054;59.332;18.244;2022-09-30T15:01:57;1.30;;;1.20;;
19788;SDS011;10054;59.332;18.244;2022-09-30T15:04:28;1.63;;;1.30;;
19788;SDS011;10054;59.332;18.244;2022-09-30T15:06:59;1.37;;;1.37;;
19788;SDS011;10054;59.332;18.244;2022-09-30T15:09:33;1.83;;;1.70;;
19788;SDS011;10054;59.332;18.244;2022-09-30T15:12:04;3.37;;;3.00;;
19788;SDS011;10054;59.332;18.244;2022-09-30T15:14:44;2.03;;;1.70;;
19788;SDS011;10054;59.332;18.244;2022-09-30T15:17:23;1.30;;;1.30;;
19788;SDS011;10054;59.332;18.244;2022-09-30T15:19:53;1.43;;;1.37;;
19788;SDS011;10054;59.332;18.244;2022-09-30T15:22:25;3.00;;;1.20;;
19788;SDS011;10054;59.332;18.244;2022-09-30T15:24:56;1.27;;;1.10;;
19788;SDS011;10054;59.332;18.244;2022-09-30T15:27:29;2.83;;;1.30;;
19788;SDS011;10054;59.332;18.244;2022-09-30T15:30:01;3.63;;;1.40;;
19788;SDS011;10054;59.332;18.244;2022-09-30T15:32:33;3.93;;;1.33;;
19788;SDS011;10054;59.332;18.244;2022-09-30T15:35:21;1.30;;;1.20;;
19788;SDS011;10054;59.332;18.244;2022-09-30T15:37:47;2.07;;;1.20;;
19788;SDS011;10054;59.332;18.244;2022-09-30T15:40:17;1.50;;;1.23;;
19788;SDS011;10054;59.332;18.244;2022-09-30T15:43:06;1.50;;;1.40;;
19788;SDS011;10054;59.332;18.244;2022-09-30T15:45:41;1.93;;;1.73;;
19788;SDS011;10054;59.332;18.244;2022-09-30T15:51:21;1.60;;;1.50;;
19788;SDS011;10054;59.332;18.244;2022-09-30T15:56:24;1.63;;;1.53;;
19788;SDS011;10054;59.332;18.244;2022-09-30T15:58:56;1.60;;;1.50;;
19788;SDS011;10054;59.332;18.244;2022-09-30T16:09:22;1.20;;;1.20;;
19788;SDS011;10054;59.332;18.244;2022-09-30T16:14:44;1.40;;;1.30;;
19788;SDS011;10054;59.332;18.244;2022-09-30T16:17:32;1.33;;;1.23;;
19788;SDS011;10054;59.332;18.244;2022-09-30T16:20:05;1.73;;;1.50;;
19788;SDS011;10054;59.332;18.244;2022-09-30T16:25:20;4.30;;;1.60;;
19788;SDS011;10054;59.332;18.244;2022-09-30T16:27:53;1.73;;;1.50;;
19788;SDS011;10054;59.332;18.244;2022-09-30T16:30:24;1.77;;;1.43;;
19788;SDS011;10054;59.332;18.244;2022-09-30T16:32:54;1.80;;;1.70;;
19788;SDS011;10054;59.332;18.244;2022-09-30T16:35:26;2.00;;;1.90;;
19788;SDS011;10054;59.332;18.244;2022-09-30T16:38:00;5.13;;;2.80;;
19788;SDS011;10054;59.332;18.244;2022-09-30T16:40:30;7.07;;;3.53;;
19788;SDS011;10054;59.332;18.244;2022-09-30T16:43:01;5.27;;;2.87;;
19788;SDS011;10054;59.332;18.244;2022-09-30T16:45:30;4.47;;;2.80;;
19788;SDS011;10054;59.332;18.244;2022-09-30T16:48:00;5.33;;;2.70;;
19788;SDS011;10054;59.332;18.244;2022-09-30T16:50:36;2.87;;;2.57;;
19788;SDS011;10054;59.332;18.244;2022-09-30T16:53:08;4.27;;;2.60;;
19788;SDS011;10054;59.332;18.244;2022-09-30T16:55:36;2.77;;;2.43;;
19788;SDS011;10054;59.332;18.244;2022-09-30T16:58:08;3.13;;;2.80;;
19788;SDS011;10054;59.332;18.244;2022-09-30T17:00:39;3.73;;;3.30;;
19788;SDS011;10054;59.332;18.244;2022-09-30T17:03:12;5.33;;;3.13;;
19788;SDS011;10054;59.332;18.244;2022-09-30T17:05:45;7.50;;;3.47;;
19788;SDS011;10054;59.332;18.244;2022-09-30T17:08:15;3.83;;;3.30;;
19788;SDS011;10054;59.332;18.244;2022-09-30T17:10:44;3.13;;;2.90;;
19788;SDS011;10054;59.332;18.244;2022-09-30T17:13:16;4.33;;;2.70;;
19788;SDS011;10054;59.332;18.244;2022-09-30T17:15:48;3.90;;;2.67;;
19788;SDS011;10054;59.332;18.244;2022-09-30T17:18:18;6.00;;;2.73;;
19788;SDS011;10054;59.332;18.244;2022-09-30T17:20:47;2.97;;;2.63;;
19788;SDS011;10054;59.332;18.244;2022-09-30T17:23:18;7.00;;;3.27;;
19788;SDS011;10054;59.332;18.244;2022-09-30T17:25:48;2.63;;;2.33;;
19788;SDS011;10054;59.332;18.244;2022-09-30T17:28:17;3.73;;;2.60;;
19788;SDS011;10054;59.332;18.244;2022-09-30T17:30:47;3.10;;;2.80;;
19788;SDS011;10054;59.332;18.244;2022-09-30T17:33:16;4.00;;;2.80;;
19788;SDS011;10054;59.332;18.244;2022-09-30T17:35:45;4.87;;;3.10;;
19788;SDS011;10054;59.332;18.244;2022-09-30T17:38:28;3.50;;;3.20;;
19788;SDS011;10054;59.332;18.244;2022-09-30T17:40:56;3.67;;;3.37;;
19788;SDS011;10054;59.332;18.244;2022-09-30T17:43:43;4.20;;;3.03;;
19788;SDS011;10054;59.332;18.244;2022-09-30T17:46:15;3.40;;;3.00;;
19788;SDS011;10054;59.332;18.244;2022-09-30T17:48:47;4.07;;;3.00;;
19788;SDS011;10054;59.332;18.244;2022-09-30T17:51:16;5.73;;;2.93;;
19788;SDS011;10054;59.332;18.244;2022-09-30T17:53:45;3.33;;;3.03;;
19788;SDS011;10054;59.332;18.244;2022-09-30T17:56:15;4.67;;;3.33;;
19788;SDS011;10054;59.332;18.244;2022-09-30T17:58:46;2.87;;;2.60;;
19788;SDS011;10054;59.332;18.244;2022-09-30T18:01:17;3.70;;;2.70;;
19788;SDS011;10054;59.332;18.244;2022-09-30T18:03:47;4.53;;;3.00;;